createdAt,value
2023-08-11T00:00:05.901Z,99.90
2023-08-11T00:03:27.223Z,99.90
2023-08-11T00:06:49.445Z,99.90
2023-08-11T00:10:13.704Z,99.90
2023-08-11T00:13:35.095Z,99.90
2023-08-11T00:16:57.359Z,99.90
2023-08-11T00:20:18.939Z,99.90
2023-08-11T00:23:41.028Z,99.90
2023-08-11T00:27:04.054Z,99.90
2023-08-11T00:30:25.810Z,99.90
2023-08-11T00:33:47.897Z,99.90
2023-08-11T00:37:09.654Z,99.90
2023-08-11T00:40:31.942Z,99.90
2023-08-11T00:43:54.524Z,99.90
2023-08-11T00:47:18.648Z,99.90
2023-08-11T00:50:40.004Z,99.90
2023-08-11T00:54:02.520Z,99.90
2023-08-11T00:57:25.200Z,99.90
2023-08-11T01:00:48.477Z,99.90
2023-08-11T01:04:09.955Z,99.90
2023-08-11T01:07:40.697Z,99.90
2023-08-11T01:11:18.489Z,99.90
2023-08-11T01:14:51.089Z,99.90
2023-08-11T01:18:14.879Z,99.90
2023-08-11T01:21:37.245Z,99.90
2023-08-11T01:25:00.909Z,99.90
2023-08-11T01:28:23.901Z,99.90
2023-08-11T01:31:45.213Z,99.90
2023-08-11T01:35:06.947Z,99.90
2023-08-11T01:38:28.533Z,99.90
2023-08-11T01:41:52.641Z,99.90
2023-08-11T01:45:16.874Z,99.90
2023-08-11T01:48:41.365Z,99.90
2023-08-11T01:52:04.610Z,99.90
2023-08-11T01:55:27.653Z,99.90
2023-08-11T01:58:50.576Z,99.90
2023-08-11T02:02:11.954Z,99.90
2023-08-11T02:05:33.205Z,99.90
2023-08-11T02:08:54.403Z,99.90
2023-08-11T02:12:15.681Z,99.90
2023-08-11T02:15:38.311Z,99.90
2023-08-11T02:19:00.295Z,99.90
2023-08-11T02:22:22.788Z,99.90
2023-08-11T02:25:43.971Z,99.90
2023-08-11T02:29:06.053Z,99.90
2023-08-11T02:32:28.818Z,99.90
2023-08-11T02:35:50.181Z,99.90
2023-08-11T02:39:11.405Z,99.90
2023-08-11T02:42:32.621Z,99.90
2023-08-11T02:45:53.895Z,99.90
2023-08-11T02:49:16.859Z,99.90
2023-08-11T02:52:38.166Z,99.90
2023-08-11T02:56:02.287Z,99.90
2023-08-11T02:59:23.624Z,99.90
2023-08-11T03:02:47.422Z,99.90
2023-08-11T03:06:12.119Z,99.90
2023-08-11T03:09:33.610Z,99.90
2023-08-11T03:12:54.830Z,99.90
2023-08-11T03:16:16.574Z,99.90
2023-08-11T03:19:38.073Z,99.90
2023-08-11T03:23:00.715Z,99.90
2023-08-11T03:26:22.007Z,99.90
2023-08-11T03:29:43.261Z,99.90
2023-08-11T03:33:04.972Z,99.90
2023-08-11T03:36:28.060Z,99.90
2023-08-11T03:39:50.757Z,99.90
2023-08-11T03:43:11.921Z,99.90
2023-08-11T03:46:33.342Z,99.90
2023-08-11T03:49:54.601Z,99.90
2023-08-11T03:53:15.881Z,99.90
2023-08-11T03:56:39.240Z,99.90
2023-08-11T04:00:00.679Z,99.90
2023-08-11T04:03:24.896Z,99.90
2023-08-11T04:06:47.257Z,99.90
2023-08-11T04:10:11.931Z,99.90
2023-08-11T04:13:34.841Z,99.90
2023-08-11T04:16:56.222Z,99.90
2023-08-11T04:20:17.631Z,99.90
2023-08-11T04:23:39.177Z,99.90
2023-08-11T04:27:00.431Z,99.90
2023-08-11T04:30:25.343Z,99.90
2023-08-11T04:33:46.624Z,99.90
2023-08-11T04:37:07.883Z,99.90
2023-08-11T04:40:29.196Z,99.90
2023-08-11T04:43:50.529Z,99.90
2023-08-11T04:47:13.152Z,99.90
2023-08-11T04:50:34.896Z,99.90
2023-08-11T04:54:01.551Z,99.90
2023-08-11T04:57:23.053Z,99.90
2023-08-11T05:00:44.470Z,99.90
2023-08-11T05:04:09.023Z,99.90
2023-08-11T05:07:30.469Z,99.90
2023-08-11T05:10:51.832Z,99.90
2023-08-11T05:14:15.484Z,99.90
2023-08-11T05:17:36.926Z,97.50
2023-08-11T05:21:01.068Z,95.40
2023-08-11T05:24:23.164Z,95.10
2023-08-11T05:27:44.477Z,93.10
2023-08-11T05:31:07.260Z,91.90
2023-08-11T05:34:28.576Z,90.80
2023-08-11T05:37:51.355Z,88.50
2023-08-11T05:41:12.872Z,83.70
2023-08-11T05:44:34.176Z,81.30
2023-08-11T05:47:55.517Z,77.80
2023-08-11T05:51:17.506Z,77.30
2023-08-11T05:54:42.349Z,77.80
2023-08-11T05:58:03.686Z,74.80
2023-08-11T06:01:25.261Z,76.10
2023-08-11T06:04:46.781Z,72.60
2023-08-11T06:08:08.057Z,71.80
2023-08-11T06:11:33.464Z,70.60
2023-08-11T06:14:54.772Z,69.40
2023-08-11T06:18:16.204Z,70.30
2023-08-11T06:21:38.955Z,69.00
2023-08-11T06:25:00.984Z,68.20
2023-08-11T06:28:23.660Z,67.40
2023-08-11T06:31:45.176Z,65.70
2023-08-11T06:35:07.047Z,64.50
2023-08-11T06:38:28.321Z,61.60
2023-08-11T06:41:49.590Z,59.90
2023-08-11T06:45:12.711Z,60.10
2023-08-11T06:48:34.113Z,59.80
2023-08-11T06:51:55.383Z,58.30
2023-08-11T06:55:16.728Z,56.60
2023-08-11T06:58:37.978Z,55.40
2023-08-11T07:02:00.784Z,54.10
2023-08-11T07:05:22.245Z,52.80
2023-08-11T07:08:43.743Z,52.60
2023-08-11T07:12:05.922Z,52.30
2023-08-11T07:15:27.507Z,51.80
2023-08-11T07:18:50.203Z,52.90
2023-08-11T07:22:11.492Z,52.40
2023-08-11T07:25:32.786Z,51.80
2023-08-11T07:28:54.136Z,52.20
2023-08-11T07:32:15.519Z,51.20
2023-08-11T07:35:38.132Z,52.20
2023-08-11T07:39:12.824Z,52.10
2023-08-11T07:42:40.783Z,52.60
2023-08-11T07:46:04.624Z,52.50
2023-08-11T07:49:26.567Z,52.90
2023-08-11T07:52:49.386Z,53.00
2023-08-11T07:56:10.679Z,52.90
2023-08-11T07:59:32.077Z,52.60
2023-08-11T08:02:54.016Z,52.60
2023-08-11T08:06:15.856Z,52.30
2023-08-11T08:09:40.097Z,51.70
2023-08-11T08:13:01.391Z,51.90
2023-08-11T08:16:22.695Z,49.70
2023-08-11T08:19:43.854Z,49.90
2023-08-11T08:23:05.461Z,50.40
2023-08-11T08:26:28.629Z,49.70
2023-08-11T08:29:50.327Z,50.10
2023-08-11T08:33:12.036Z,48.80
2023-08-11T08:36:33.435Z,48.40
2023-08-11T08:39:54.677Z,47.70
2023-08-11T08:43:20.918Z,46.80
2023-08-11T08:46:47.466Z,46.00
2023-08-11T08:50:17.623Z,46.30
2023-08-11T08:53:39.305Z,45.80
2023-08-11T08:57:02.325Z,42.10
2023-08-11T09:00:25.644Z,39.60
2023-08-11T09:03:49.102Z,40.40
2023-08-11T09:07:11.498Z,40.90
2023-08-11T09:10:33.613Z,39.20
2023-08-11T09:13:55.317Z,37.50
2023-08-11T09:17:18.504Z,37.50
2023-08-11T09:20:47.494Z,37.30
2023-08-11T09:24:13.107Z,37.60
2023-08-11T09:27:37.542Z,36.90
2023-08-11T09:30:59.918Z,36.90
2023-08-11T09:34:22.800Z,39.70
2023-08-11T09:37:45.291Z,39.30
2023-08-11T09:41:10.197Z,41.30
2023-08-11T09:44:32.269Z,40.00
2023-08-11T09:47:56.175Z,38.50
2023-08-11T09:51:22.378Z,38.90
2023-08-11T09:54:46.031Z,39.50
2023-08-11T09:58:10.908Z,39.30
2023-08-11T10:01:35.833Z,40.30
2023-08-11T10:05:04.022Z,39.60
2023-08-11T10:08:30.404Z,38.80
2023-08-11T10:11:53.715Z,39.60
2023-08-11T10:15:18.831Z,39.50
2023-08-11T10:18:41.865Z,40.20
2023-08-11T10:22:04.319Z,41.20
2023-08-11T10:25:28.125Z,40.90
2023-08-11T10:28:50.638Z,40.50
2023-08-11T10:32:12.262Z,40.50
2023-08-11T10:35:35.760Z,40.20
2023-08-11T10:39:02.997Z,40.10
2023-08-11T10:42:26.255Z,39.50
2023-08-11T10:45:47.951Z,40.20
2023-08-11T10:49:33.358Z,40.00
2023-08-11T10:53:06.788Z,39.90
2023-08-11T10:56:30.498Z,41.30
2023-08-11T11:00:11.618Z,41.10
2023-08-11T11:03:35.340Z,41.00
2023-08-11T11:07:00.114Z,40.10
2023-08-11T11:10:22.968Z,40.90
2023-08-11T11:13:47.244Z,41.80
2023-08-11T11:17:10.035Z,42.10
2023-08-11T11:20:32.017Z,43.60
2023-08-11T11:23:54.120Z,42.90
2023-08-11T11:27:20.264Z,42.20
2023-08-11T11:30:41.518Z,43.90
2023-08-11T11:34:04.695Z,43.70
2023-08-11T11:37:27.501Z,44.50
2023-08-11T11:40:50.943Z,45.00
2023-08-11T11:44:12.742Z,44.20
2023-08-11T11:47:34.976Z,43.80
2023-08-11T11:51:04.543Z,44.50
2023-08-11T11:54:29.289Z,44.20
2023-08-11T11:57:50.601Z,45.20
2023-08-11T12:01:13.372Z,45.10
2023-08-11T12:04:35.272Z,45.30
2023-08-11T12:07:58.455Z,45.90
2023-08-11T12:11:26.535Z,46.30
2023-08-11T12:14:47.887Z,46.20
2023-08-11T12:18:09.545Z,46.90
2023-08-11T12:21:31.260Z,48.00
2023-08-11T12:24:54.000Z,47.60
2023-08-11T12:28:15.467Z,47.80
2023-08-11T12:31:37.345Z,48.70
2023-08-11T12:34:58.957Z,48.60
2023-08-11T12:38:22.054Z,48.50
2023-08-11T12:41:44.805Z,48.10
2023-08-11T12:45:06.566Z,48.10
2023-08-11T12:48:27.888Z,48.90
2023-08-11T12:51:52.546Z,49.50
2023-08-11T12:55:17.473Z,49.50
2023-08-11T12:58:40.763Z,48.90
2023-08-11T13:02:02.526Z,48.90
2023-08-11T13:05:24.298Z,50.30
2023-08-11T13:08:45.667Z,50.00
2023-08-11T13:12:13.338Z,50.10
2023-08-11T13:15:37.013Z,50.60
2023-08-11T13:18:58.867Z,50.10
2023-08-11T13:22:20.102Z,49.90
2023-08-11T13:25:42.143Z,51.30
2023-08-11T13:29:03.468Z,51.60
2023-08-11T13:32:26.211Z,51.20
2023-08-11T13:35:48.926Z,50.60
2023-08-11T13:39:10.824Z,50.80
2023-08-11T13:42:31.985Z,50.50
2023-08-11T13:45:54.685Z,50.70
2023-08-11T13:49:17.514Z,52.00
2023-08-11T13:52:38.777Z,52.00
2023-08-11T13:56:00.656Z,51.00
2023-08-11T13:59:21.967Z,51.40
2023-08-11T14:02:43.338Z,52.10
2023-08-11T14:06:06.058Z,49.60
2023-08-11T14:09:27.495Z,50.50
2023-08-11T14:12:48.739Z,50.80
2023-08-11T14:16:10.354Z,51.50
2023-08-11T14:19:31.724Z,51.80
2023-08-11T14:22:54.395Z,52.40
2023-08-11T14:26:15.707Z,51.70
2023-08-11T14:29:37.070Z,52.40
2023-08-11T14:32:58.765Z,52.30
2023-08-11T14:36:20.144Z,52.70
2023-08-11T14:39:42.809Z,51.80
2023-08-11T14:43:04.108Z,51.60
2023-08-11T14:46:25.710Z,52.40
2023-08-11T14:49:47.082Z,52.30
2023-08-11T14:53:08.374Z,53.30
2023-08-11T14:56:31.152Z,52.70
2023-08-11T14:59:52.386Z,52.60
2023-08-11T15:03:13.926Z,52.60
2023-08-11T15:06:35.364Z,52.60
2023-08-11T15:09:56.755Z,52.40
2023-08-11T15:13:19.508Z,52.50
2023-08-11T15:16:41.036Z,52.80
2023-08-11T15:20:02.337Z,52.60
2023-08-11T15:23:23.541Z,52.20
2023-08-11T15:26:44.796Z,53.40
2023-08-11T15:30:08.177Z,54.20
2023-08-11T15:33:29.582Z,54.20
2023-08-11T15:36:50.848Z,53.80
2023-08-11T15:40:12.735Z,53.60
2023-08-11T15:43:34.023Z,54.10
2023-08-11T15:46:56.641Z,54.20
2023-08-11T15:50:17.937Z,55.00
2023-08-11T15:53:39.453Z,53.80
2023-08-11T15:57:00.724Z,53.60
2023-08-11T16:00:22.041Z,53.90
2023-08-11T16:03:44.806Z,54.30
2023-08-11T16:07:06.299Z,54.70
2023-08-11T16:10:33.005Z,55.50
2023-08-11T16:13:54.597Z,55.20
2023-08-11T16:17:15.904Z,55.20
2023-08-11T16:20:38.948Z,55.00
2023-08-11T16:24:00.317Z,55.60
2023-08-11T16:27:22.214Z,55.50
2023-08-11T16:30:43.559Z,55.70
2023-08-11T16:34:05.115Z,56.50
2023-08-11T16:37:27.721Z,57.50
2023-08-11T16:40:49.119Z,58.00
2023-08-11T16:44:11.214Z,57.80
2023-08-11T16:47:32.581Z,59.50
2023-08-11T16:50:55.218Z,63.00
2023-08-11T16:54:19.567Z,66.00
2023-08-11T16:57:41.010Z,67.60
2023-08-11T17:01:03.963Z,69.50
2023-08-11T17:04:25.319Z,71.40
2023-08-11T17:07:46.718Z,72.10
2023-08-11T17:11:09.570Z,72.80
2023-08-11T17:14:30.938Z,71.80
2023-08-11T17:17:52.355Z,73.80
2023-08-11T17:21:14.221Z,73.50
2023-08-11T17:24:35.825Z,74.40
2023-08-11T17:27:58.766Z,74.60
2023-08-11T17:31:20.067Z,75.10
2023-08-11T17:34:56.496Z,76.20
2023-08-11T17:38:19.588Z,77.00
2023-08-11T17:41:40.978Z,78.30
2023-08-11T17:45:03.712Z,79.60
2023-08-11T17:48:25.131Z,80.60
2023-08-11T17:51:46.351Z,81.80
2023-08-11T17:55:07.992Z,81.10
2023-08-11T17:58:30.042Z,82.30
2023-08-11T18:01:53.348Z,83.70
2023-08-11T18:05:14.662Z,84.90
2023-08-11T18:08:35.930Z,86.40
2023-08-11T18:11:57.396Z,87.20
2023-08-11T18:15:18.644Z,88.30
2023-08-11T18:18:43.491Z,89.60
2023-08-11T18:22:04.872Z,90.80
2023-08-11T18:25:26.379Z,89.60
2023-08-11T18:28:48.589Z,90.10
2023-08-11T18:32:10.490Z,90.40
2023-08-11T18:35:33.512Z,90.50
2023-08-11T18:38:54.870Z,90.40
2023-08-11T18:42:16.161Z,90.60
2023-08-11T18:45:37.531Z,91.00
2023-08-11T18:48:59.626Z,91.20
2023-08-11T18:52:22.401Z,92.00
2023-08-11T18:55:43.706Z,92.40
2023-08-11T18:59:05.088Z,93.00
2023-08-11T19:02:26.566Z,93.00
2023-08-11T19:05:48.029Z,93.20
2023-08-11T19:09:11.506Z,93.50
2023-08-11T19:12:33.063Z,93.80
2023-08-11T19:15:54.432Z,94.10
2023-08-11T19:19:16.341Z,94.40
2023-08-11T19:22:37.798Z,94.30
2023-08-11T19:26:01.303Z,94.50
2023-08-11T19:29:23.222Z,94.50
2023-08-11T19:32:44.680Z,94.80
2023-08-11T19:36:06.119Z,95.20
2023-08-11T19:39:27.432Z,94.80
2023-08-11T19:42:50.043Z,95.80
2023-08-11T19:46:11.444Z,95.50
2023-08-11T19:49:32.734Z,95.20
2023-08-11T19:52:54.259Z,95.80
2023-08-11T19:56:15.488Z,96.60
2023-08-11T19:59:38.184Z,98.60
2023-08-11T20:02:59.592Z,99.80
2023-08-11T20:06:21.003Z,99.90
2023-08-11T20:09:42.278Z,99.90
2023-08-11T20:13:03.665Z,99.90
2023-08-11T20:16:26.536Z,99.90
2023-08-11T20:19:47.838Z,99.90
2023-08-11T20:23:09.103Z,99.90
2023-08-11T20:26:30.383Z,99.90
2023-08-11T20:29:51.652Z,99.90
2023-08-11T20:33:14.266Z,99.90
2023-08-11T20:36:39.093Z,99.90
2023-08-11T20:40:00.417Z,99.90
2023-08-11T20:43:21.724Z,99.90
2023-08-11T20:46:43.144Z,99.90
2023-08-11T20:50:06.201Z,99.90
2023-08-11T20:53:27.519Z,99.90
2023-08-11T20:56:48.773Z,99.90
2023-08-11T21:00:10.508Z,99.90
2023-08-11T21:03:31.822Z,99.90
2023-08-11T21:06:54.829Z,99.90
2023-08-11T21:10:16.390Z,99.90
2023-08-11T21:13:37.827Z,99.90
2023-08-11T21:17:02.494Z,99.90
2023-08-11T21:20:24.646Z,99.90
2023-08-11T21:23:47.331Z,99.90
2023-08-11T21:27:08.789Z,99.90
2023-08-11T21:30:30.694Z,99.90
2023-08-11T21:33:59.902Z,99.90
2023-08-11T21:37:21.194Z,99.90
2023-08-11T21:40:44.018Z,99.90
2023-08-11T21:44:05.782Z,99.90
2023-08-11T21:47:27.109Z,99.90
2023-08-11T21:50:48.495Z,99.90
2023-08-11T21:54:12.749Z,99.90
2023-08-11T21:57:35.535Z,99.90
2023-08-11T22:00:57.559Z,99.90
2023-08-11T22:04:18.844Z,99.90
2023-08-11T22:07:40.205Z,99.90
2023-08-11T22:11:02.556Z,99.90
2023-08-11T22:14:25.338Z,99.90
2023-08-11T22:17:46.789Z,99.90
2023-08-11T22:21:08.172Z,99.90
2023-08-11T22:24:40.488Z,99.90
2023-08-11T22:28:03.189Z,99.90
2023-08-11T22:31:26.004Z,99.90
2023-08-11T22:34:52.954Z,99.90
2023-08-11T22:38:14.421Z,99.90
2023-08-11T22:41:35.827Z,99.90
2023-08-11T22:44:57.366Z,99.90
2023-08-11T22:48:20.136Z,99.90
2023-08-11T22:51:41.403Z,99.90
2023-08-11T22:55:02.718Z,99.90
2023-08-11T22:58:23.960Z,99.90
2023-08-11T23:01:45.509Z,99.90
2023-08-11T23:05:10.429Z,99.90
2023-08-11T23:08:33.193Z,99.90
2023-08-11T23:11:54.514Z,99.90
2023-08-11T23:15:15.771Z,99.90
2023-08-11T23:18:36.957Z,99.90
2023-08-11T23:21:59.617Z,99.90
2023-08-11T23:25:20.893Z,99.90
2023-08-11T23:28:42.191Z,99.90
2023-08-11T23:32:03.495Z,99.90
2023-08-11T23:35:25.207Z,99.90
2023-08-11T23:38:48.878Z,99.90
2023-08-11T23:42:10.234Z,99.90
2023-08-11T23:45:31.685Z,99.90
2023-08-11T23:48:52.970Z,99.90
2023-08-11T23:52:14.829Z,99.90
2023-08-11T23:55:45.095Z,99.90
2023-08-11T23:59:06.482Z,99.90
